Littlerock, Washington
Current Conditions -  °F | °C
As of 6:54 PM on Saturday 22 Nov 2014 (Local Time) from KOLM Reporting Station
Light Rain Light Rain  
Wind Chill: 42°   Ceiling: 5500
Heat Index: 47°   Visibility: 6mi
Dew Point: 41°   Wind: 12mph
Humidity: 80%   Direction: 210°SSW
Pressure: 30.08"   Gusts: NA
Location:  46.9°N, 123.02°W
Report Text: KOLM 230254Z 21010KT 6SM -RA FEW019 SCT046 BKN055 08/05 A3008 RMK AO2 RAB47 SLP185 P0000 60000 T00830050 51034 $
Loading
Personal Weather Stations






























Interactive Weather Map New forecast layout! Learn more

10-Day Weather Forecast

Advertisements
Track Severe Weather on mobile